Hauptseite
METAR-TAF:

METAR-TAF

Flughäfen :

George Best Belfast City Airport

Belfast City, Nordirland

Breite: 54-36N, Länge: 005-53W, Höhe: 5 m

Beobachtung

Neuester Wetterbericht von vor 43 Minuten, um 18:50 UTC
Wind 8 kt aus West, variierte zwischen West/Südwest und Nordwest
Temperatur 10°C
Luftfeuchtigkeit 66%
Luftdruck 1032 hPa
Sichtweite 10 km oder mehr

METAR: EGAC 211850Z AUTO 28008KT 240V310 9999 FEW049/// 10/04 Q1032

Zeit: 20:33 (19:33 UTC)

Prognose

Neuester Wetterbericht von vor 2 Stunden und 38 Minuten, um 16:55 UTC
Gültige Prognose vom 21 um 18 UTC bis 21 um 21 UTC
Wind 10 kt aus West/Nordwest
Sichtweite 10 km oder mehr
Leicht bewölkt in der Höhe von 2800 ft
Aufgelockert bewölkt in der Höhe von 4500 ft

TAF: EGAC 211655Z 2118/2121 29010KT 9999 FEW028 SCT045

Wetterbeobachtungen und Prognosen von mehr als 4000 Flughäfen (METAR und TAF Bericht).

Die verfügbaren Stationen werden durch gelbe und rote Markierungen auf der Karte dargestellt.

Führen Sie die Maus auf sie, um den Namen der Station zu sehen.

Darauf klicken, um die Beobachtung von Wetterbeobachtungen und Prognosen zu sehen.

Um die Karte zu ändern : klicken Sie auf den grünen Tasten mit einem schwarzen Kreuz Zum Vergrößern, auf den grünen Button mit einem Gedankenstrich zu verkleinern, oder auf die grünen Pfeile für benachbarte Karten.


METAR-TAF: